Time;durP1;ratioP1;P1;durP2;ratioP2;P2;SDS_P1;SDS_P2;PMS_P1;PMS_P2;Temp;Humidity;BMP_temperature;BMP_pressure;BME280_temperature;BME280_humidity;BME280_pressure;Samples;Min_cycle;Max_cycle;Signal;HPM_P1;HPM_P2
2022/02/06 00:01:38;;;;;;;16.60;7.80;;;;;;;0.46;82.67;98568.62;433412;1268;111189;-40
2022/02/06 00:11:46;;;;;;;17.00;7.80;;;;;;;0.53;82.49;98560.77;433251;1268;108517;-42
2022/02/06 00:21:53;;;;;;;25.40;9.30;;;;;;;0.53;82.72;98551.02;433571;1267;96681;-40
2022/02/06 00:32:04;;;;;;;20.10;9.70;;;;;;;0.54;82.62;98533.77;432565;1269;110979;-40
2022/02/06 00:42:09;;;;;;;20.80;9.80;;;;;;;0.54;82.35;98525.19;432979;1270;108633;-43
2022/02/06 01:02:23;;;;;;;18.20;8.60;;;;;;;0.72;82.20;98498.67;433550;1268;97899;-41
2022/02/06 01:22:39;;;;;;;17.90;8.30;;;;;;;0.55;81.97;98481.44;432959;1270;108634;-41
2022/02/06 01:32:55;;;;;;;20.70;9.00;;;;;;;0.40;81.93;98465.36;433040;1270;97936;-40
2022/02/06 01:43:06;;;;;;;13.80;5.70;;;;;;;0.34;81.82;98444.75;428791;1269;5649046;-39
2022/02/06 03:05:29;;;;;;;16.00;6.90;;;;;;;0.61;81.56;98325.72;433622;1267;107801;-41
2022/02/06 03:35:53;;;;;;;11.50;5.30;;;;;;;0.80;81.49;98277.14;432877;1270;108887;-41
2022/02/06 03:46:07;;;;;;;10.20;5.90;;;;;;;0.77;81.23;98268.84;433569;1267;97892;-40
2022/02/06 03:56:16;;;;;;;10.20;4.30;;;;;;;0.75;80.94;98254.71;433493;1267;111138;-41
2022/02/06 04:26:36;;;;;;;11.80;5.50;;;;;;;0.95;80.95;98217.52;433392;1266;98028;-41
2022/02/06 04:36:51;;;;;;;8.60;5.40;;;;;;;0.96;81.07;98207.57;433527;1267;110001;-41
2022/02/06 04:47:36;;;;;;;7.20;3.60;;;;;;;0.96;81.10;98181.66;433322;1267;109002;-41
2022/02/06 05:28:53;;;;;;;7.60;3.70;;;;;;;0.88;81.97;98123.19;433387;1267;109110;-40
2022/02/06 05:39:01;;;;;;;6.60;4.40;;;;;;;0.88;82.37;98111.10;433134;1268;97916;-40
2022/02/06 05:59:18;;;;;;;6.90;4.90;;;;;;;0.78;82.86;98089.00;433667;1267;97959;-40
2022/02/06 06:09:25;;;;;;;7.50;3.70;;;;;;;0.74;83.23;98083.81;433536;1267;97907;-40
2022/02/06 06:19:34;;;;;;;11.20;4.60;;;;;;;0.78;83.68;98071.90;433135;1266;108606;-42
2022/02/06 06:29:41;;;;;;;7.50;4.00;;;;;;;0.86;83.76;98056.33;433477;1267;97498;-40
2022/02/06 06:39:48;;;;;;;11.40;5.80;;;;;;;0.90;84.19;98044.81;433540;1267;111093;-40
2022/02/06 06:49:59;;;;;;;12.20;5.00;;;;;;;0.89;84.42;98024.02;433367;1267;107842;-40
2022/02/06 07:10:33;;;;;;;11.30;5.20;;;;;;;1.19;84.62;97993.87;433432;1266;98585;-40
2022/02/06 07:20:39;;;;;;;14.30;7.00;;;;;;;1.42;84.59;97985.27;433613;1267;108867;-40
2022/02/06 07:30:47;;;;;;;7.20;4.10;;;;;;;1.61;84.48;97981.05;433358;1267;108974;-40
2022/02/06 07:40:54;;;;;;;7.70;4.80;;;;;;;1.74;84.19;97973.30;433680;1267;97894;-39
2022/02/06 08:01:09;;;;;;;20.10;8.00;;;;;;;1.94;84.28;97971.68;433528;1267;97932;-40
2022/02/06 08:11:16;;;;;;;6.40;3.40;;;;;;;1.97;83.98;97969.86;433567;1267;97566;-40
2022/02/06 08:21:22;;;;;;;8.60;4.30;;;;;;;1.97;84.16;97955.41;433369;1267;109821;-41
2022/02/06 08:31:30;;;;;;;14.40;5.50;;;;;;;1.90;84.32;97941.64;433100;1267;108192;-40
2022/02/06 08:41:37;;;;;;;9.30;4.80;;;;;;;1.82;84.53;97933.41;432569;1267;97538;-39
2022/02/06 08:51:45;;;;;;;12.40;7.10;;;;;;;1.80;84.82;97921.17;433426;1267;98173;-40
2022/02/06 09:01:52;;;;;;;15.60;8.40;;;;;;;1.81;84.83;97904.05;433570;1267;108862;-39
2022/02/06 09:12:00;;;;;;;20.50;9.70;;;;;;;1.82;85.17;97886.29;433571;1266;97920;-39
2022/02/06 09:22:09;;;;;;;15.50;7.60;;;;;;;1.92;85.01;97874.16;433727;1267;97671;-40
2022/02/06 09:42:48;;;;;;;16.90;9.60;;;;;;;2.06;85.28;97854.28;433610;1267;98697;-40
2022/02/06 09:52:56;;;;;;;12.30;7.30;;;;;;;2.05;85.41;97841.08;433521;1267;97481;-40
2022/02/06 10:03:08;;;;;;;11.20;5.10;;;;;;;2.12;85.49;97825.70;433767;1267;109247;-40
2022/02/06 10:13:14;;;;;;;14.20;7.40;;;;;;;2.18;85.69;97818.35;433732;1267;97930;-40
2022/02/06 10:23:24;;;;;;;15.00;7.00;;;;;;;2.19;85.71;97802.10;433522;1267;97990;-40
2022/02/06 10:33:45;;;;;;;15.60;6.50;;;;;;;2.27;85.83;97790.77;433623;1267;111255;-40
2022/02/06 10:43:56;;;;;;;18.20;7.40;;;;;;;2.45;85.86;97766.84;433638;1267;109027;-40
2022/02/06 10:54:04;;;;;;;14.80;7.70;;;;;;;2.50;85.94;97742.92;433758;1267;97896;-40
2022/02/06 11:14:22;;;;;;;12.20;5.40;;;;;;;2.49;85.97;97712.77;433484;1267;108166;-40
2022/02/06 11:24:36;;;;;;;16.30;7.20;;;;;;;2.46;86.11;97690.09;433471;1267;97524;-40
2022/02/06 11:34:44;;;;;;;10.70;6.30;;;;;;;2.35;86.26;97671.94;433570;1267;110991;-40
2022/02/06 11:44:55;;;;;;;9.70;5.50;;;;;;;2.46;86.34;97659.55;433626;1267;107020;-40
2022/02/06 11:55:03;;;;;;;14.50;5.90;;;;;;;2.57;86.47;97638.52;433810;1267;97488;-40
2022/02/06 12:05:14;;;;;;;16.50;7.80;;;;;;;2.60;86.65;97635.12;433462;1267;111044;-39
2022/02/06 12:45:59;;;;;;;11.00;7.50;;;;;;;3.08;87.00;97552.45;433349;1267;109070;-40
2022/02/06 12:56:04;;;;;;;9.60;7.00;;;;;;;3.10;86.94;97538.81;433599;1267;97496;-40
2022/02/06 13:06:14;;;;;;;10.50;6.00;;;;;;;3.22;87.04;97559.77;433516;1268;107769;-40
2022/02/06 13:16:38;;;;;;;11.10;5.80;;;;;;;3.31;87.04;97546.30;433746;1268;97030;-40
2022/02/06 13:47:12;;;;;;;12.00;5.70;;;;;;;3.66;86.68;97481.85;429444;1268;5611375;-40
2022/02/06 13:57:20;;;;;;;8.50;5.80;;;;;;;3.68;86.44;97456.61;433612;1267;110623;-40
2022/02/06 14:07:30;;;;;;;8.50;4.10;;;;;;;3.72;86.13;97447.61;433568;1268;108839;-40
2022/02/06 14:17:39;;;;;;;9.10;4.00;;;;;;;3.84;85.63;97424.46;433679;1268;97907;-39
2022/02/06 14:37:58;;;;;;;9.40;4.50;;;;;;;3.70;85.32;97402.83;433557;1267;108734;-40
2022/02/06 14:48:03;;;;;;;7.00;3.80;;;;;;;3.73;84.85;97389.40;433708;1267;108651;-39
2022/02/06 14:58:11;;;;;;;10.90;4.80;;;;;;;3.72;84.75;97350.47;433492;1267;97610;-40
2022/02/06 15:08:19;;;;;;;9.10;4.70;;;;;;;3.61;84.51;97318.34;433123;1267;111106;-40
2022/02/06 15:28:37;;;;;;;14.30;6.10;;;;;;;3.59;83.89;97275.03;432737;1268;98031;-40
2022/02/06 15:48:51;;;;;;;11.50;4.40;;;;;;;3.57;83.55;97234.94;433332;1267;108876;-40
2022/02/06 15:58:59;;;;;;;10.30;3.80;;;;;;;3.71;83.42;97220.27;433305;1267;109376;-40
2022/02/06 16:09:07;;;;;;;13.60;4.70;;;;;;;3.81;82.87;97190.31;433215;1267;97970;-40
2022/02/06 16:29:20;;;;;;;8.50;4.60;;;;;;;3.88;81.93;97155.09;433697;1267;107472;-40
2022/02/06 16:39:28;;;;;;;12.10;4.80;;;;;;;3.84;82.03;97126.39;433775;1267;97926;-39
2022/02/06 16:49:34;;;;;;;8.80;4.10;;;;;;;3.75;81.82;97112.70;433720;1267;97902;-40
2022/02/06 16:59:41;;;;;;;7.90;4.10;;;;;;;3.71;81.68;97089.19;433688;1267;111130;-41
2022/02/06 17:09:49;;;;;;;14.40;5.00;;;;;;;3.69;81.62;97065.56;433615;1267;108773;-40
2022/02/06 17:19:55;;;;;;;10.80;3.50;;;;;;;3.60;81.71;97047.94;433749;1267;97933;-40
2022/02/06 17:30:04;;;;;;;7.00;3.50;;;;;;;3.55;81.68;97020.06;433612;1267;111040;-40
2022/02/06 17:40:15;;;;;;;7.60;3.40;;;;;;;3.51;81.95;97011.91;433621;1267;109149;-40
2022/02/06 17:50:31;;;;;;;10.50;4.60;;;;;;;3.36;82.41;96992.94;433613;1267;98028;-40
2022/02/06 18:00:39;;;;;;;7.70;2.90;;;;;;;3.24;82.86;96963.25;433478;1267;111014;-40
2022/02/06 18:10:47;;;;;;;5.70;3.40;;;;;;;3.21;83.47;96935.49;433600;1267;108642;-40
2022/02/06 18:20:55;;;;;;;5.30;2.90;;;;;;;3.22;83.70;96914.79;433633;1267;97907;-40
2022/02/06 18:31:02;;;;;;;6.50;3.50;;;;;;;3.26;84.01;96896.07;433610;1267;108989;-41
2022/02/06 19:01:20;;;;;;;8.90;3.90;;;;;;;3.20;85.05;96848.77;433540;1267;108269;-40
2022/02/06 19:11:27;;;;;;;7.30;3.50;;;;;;;3.18;85.20;96825.33;433389;1267;97927;-41
2022/02/06 19:21:34;;;;;;;7.70;4.40;;;;;;;3.15;85.45;96799.30;433469;1267;106158;-40
2022/02/06 19:31:42;;;;;;;7.40;3.30;;;;;;;3.19;85.76;96783.60;433818;1267;98588;-39
2022/02/06 19:51:56;;;;;;;7.20;3.40;;;;;;;3.33;86.26;96738.99;433479;1267;107281;-40
2022/02/06 20:02:04;;;;;;;5.40;3.30;;;;;;;3.37;86.56;96719.14;433583;1266;98586;-41
2022/02/06 20:12:11;;;;;;;15.20;8.20;;;;;;;3.39;86.63;96691.38;433806;1267;108985;-40
2022/02/06 20:22:18;;;;;;;13.50;7.50;;;;;;;3.39;86.60;96678.46;433293;1267;108947;-40
2022/02/06 20:32:24;;;;;;;14.00;7.40;;;;;;;3.42;87.01;96660.28;433563;1266;97499;-41
2022/02/06 20:42:33;;;;;;;6.80;3.10;;;;;;;3.47;87.09;96655.34;433565;1267;108896;-41
2022/02/06 20:52:41;;;;;;;5.20;2.30;;;;;;;3.51;87.21;96643.20;433531;1267;97542;-41
2022/02/06 21:02:48;;;;;;;6.40;2.90;;;;;;;3.51;87.25;96629.92;433536;1267;111171;-40
2022/02/06 21:12:55;;;;;;;4.90;2.70;;;;;;;3.43;87.30;96625.77;433429;1267;107849;-42
2022/02/06 21:23:03;;;;;;;3.10;2.00;;;;;;;3.44;87.42;96622.05;433464;1267;97373;-41
2022/02/06 21:33:13;;;;;;;5.20;2.20;;;;;;;3.40;87.73;96609.30;433446;1267;108557;-43
2022/02/06 21:43:18;;;;;;;;;;;;;;;3.41;87.64;96597.35;433639;1267;97052;-40
2022/02/06 21:53:26;;;;;;;7.00;2.50;;;;;;;3.39;87.87;96589.95;433352;1268;111039;-42
2022/02/06 22:03:32;;;;;;;7.30;3.30;;;;;;;3.35;88.07;96581.53;433634;1267;108812;-40
2022/02/06 22:24:11;;;;;;;4.40;2.40;;;;;;;3.40;88.10;96563.17;433578;1267;108742;-41
2022/02/06 22:34:18;;;;;;;3.40;2.60;;;;;;;3.43;88.34;96559.08;433656;1267;97532;-40
2022/02/06 22:44:26;;;;;;;5.90;2.10;;;;;;;3.50;88.26;96542.64;433530;1267;111142;-42
2022/02/06 22:54:34;;;;;;;6.20;2.50;;;;;;;3.57;88.40;96546.60;433593;1264;109003;-41
2022/02/06 23:04:44;;;;;;;5.30;2.50;;;;;;;3.55;88.53;96568.55;433536;1266;97898;-41
2022/02/06 23:14:51;;;;;;;4.70;1.90;;;;;;;3.59;88.47;96580.38;433365;1267;110990;-40
2022/02/06 23:25:00;;;;;;;3.10;1.40;;;;;;;3.71;88.54;96582.19;433555;1265;109025;-41
2022/02/06 23:35:06;;;;;;;1.50;1.20;;;;;;;3.75;88.10;96587.75;433679;1267;97934;-41
2022/02/06 23:45:21;;;;;;;3.70;1.80;;;;;;;3.64;88.20;96584.23;433477;1266;108854;-41
2022/02/06 23:55:35;;;;;;;1.50;1.00;;;;;;;3.62;88.20;96570.88;433673;1267;109033;-41
